sensor_id;sensor_type;location;lat;lon;timestamp;pressure;altitude;pressure_sealevel;temperature;humidity
35551;BME280;21655;46.056;13.616;2022-10-26T00:02:02;100978.53;;;13.88;100.00
35551;BME280;21655;46.056;13.616;2022-10-26T00:04:28;100983.34;;;13.94;100.00
35551;BME280;21655;46.056;13.616;2022-10-26T00:06:53;100978.09;;;13.99;100.00
35551;BME280;21655;46.056;13.616;2022-10-26T00:09:19;100976.59;;;13.89;100.00
35551;BME280;21655;46.056;13.616;2022-10-26T00:11:44;100973.44;;;13.92;100.00
35551;BME280;21655;46.056;13.616;2022-10-26T00:14:09;100979.47;;;14.03;100.00
35551;BME280;21655;46.056;13.616;2022-10-26T00:16:35;100980.94;;;14.14;100.00
35551;BME280;21655;46.056;13.616;2022-10-26T00:19:00;100981.78;;;14.14;100.00
35551;BME280;21655;46.056;13.616;2022-10-26T00:21:26;100971.34;;;14.16;100.00
35551;BME280;21655;46.056;13.616;2022-10-26T00:23:51;100973.41;;;14.22;100.00
35551;BME280;21655;46.056;13.616;2022-10-26T00:26:16;100972.06;;;14.33;100.00
35551;BME280;21655;46.056;13.616;2022-10-26T00:28:42;100974.84;;;14.33;100.00
35551;BME280;21655;46.056;13.616;2022-10-26T00:31:12;100984.56;;;14.37;100.00
35551;BME280;21655;46.056;13.616;2022-10-26T00:33:37;100982.66;;;14.37;100.00
35551;BME280;21655;46.056;13.616;2022-10-26T00:36:03;100972.19;;;14.39;100.00
35551;BME280;21655;46.056;13.616;2022-10-26T00:38:29;100980.72;;;14.38;100.00
35551;BME280;21655;46.056;13.616;2022-10-26T00:40:55;100989.09;;;14.38;100.00
35551;BME280;21655;46.056;13.616;2022-10-26T00:45:48;100985.84;;;14.34;100.00
35551;BME280;21655;46.056;13.616;2022-10-26T00:48:21;100986.50;;;14.36;100.00
35551;BME280;21655;46.056;13.616;2022-10-26T00:50:49;100979.09;;;14.29;100.00
35551;BME280;21655;46.056;13.616;2022-10-26T00:53:16;100984.16;;;14.25;100.00
35551;BME280;21655;46.056;13.616;2022-10-26T00:55:47;100980.69;;;14.23;100.00
35551;BME280;21655;46.056;13.616;2022-10-26T00:58:14;100980.88;;;14.22;100.00
35551;BME280;21655;46.056;13.616;2022-10-26T01:00:42;100981.25;;;14.19;100.00
35551;BME280;21655;46.056;13.616;2022-10-26T01:03:09;100975.88;;;14.17;100.00
35551;BME280;21655;46.056;13.616;2022-10-26T01:05:37;100981.25;;;14.19;100.00
35551;BME280;21655;46.056;13.616;2022-10-26T01:08:04;100977.78;;;14.17;100.00
35551;BME280;21655;46.056;13.616;2022-10-26T01:10:31;100980.03;;;14.21;100.00
35551;BME280;21655;46.056;13.616;2022-10-26T01:12:57;100974.25;;;14.23;100.00
35551;BME280;21655;46.056;13.616;2022-10-26T01:15:35;100975.88;;;14.17;100.00
35551;BME280;21655;46.056;13.616;2022-10-26T01:18:09;100963.53;;;14.12;100.00
35551;BME280;21655;46.056;13.616;2022-10-26T01:24:08;100962.78;;;14.18;100.00
35551;BME280;21655;46.056;13.616;2022-10-26T01:29:30;100961.41;;;14.14;100.00
35551;BME280;21655;46.056;13.616;2022-10-26T01:32:16;100967.31;;;14.19;100.00
35551;BME280;21655;46.056;13.616;2022-10-26T01:34:54;100974.31;;;14.15;100.00
35551;BME280;21655;46.056;13.616;2022-10-26T01:37:27;100976.78;;;14.10;100.00
35551;BME280;21655;46.056;13.616;2022-10-26T01:40:08;100976.41;;;14.13;100.00
35551;BME280;21655;46.056;13.616;2022-10-26T01:42:41;100968.22;;;14.11;100.00
35551;BME280;21655;46.056;13.616;2022-10-26T01:45:09;100970.50;;;14.08;100.00
35551;BME280;21655;46.056;13.616;2022-10-26T01:47:37;100972.63;;;14.06;100.00
35551;BME280;21655;46.056;13.616;2022-10-26T01:50:05;100961.28;;;14.07;100.00
35551;BME280;21655;46.056;13.616;2022-10-26T01:52:31;100964.63;;;14.03;100.00
35551;BME280;21655;46.056;13.616;2022-10-26T01:55:48;100972.06;;;14.10;100.00
35551;BME280;21655;46.056;13.616;2022-10-26T01:57:50;100965.03;;;14.00;100.00
35551;BME280;21655;46.056;13.616;2022-10-26T02:00:16;100972.34;;;14.01;100.00
35551;BME280;21655;46.056;13.616;2022-10-26T02:02:54;100975.28;;;13.99;100.00
35551;BME280;21655;46.056;13.616;2022-10-26T02:11:09;100959.06;;;14.03;100.00
35551;BME280;21655;46.056;13.616;2022-10-26T02:13:59;100970.16;;;14.11;100.00
35551;BME280;21655;46.056;13.616;2022-10-26T02:16:53;100962.66;;;14.11;100.00
35551;BME280;21655;46.056;13.616;2022-10-26T02:19:26;100965.75;;;14.16;100.00
35551;BME280;21655;46.056;13.616;2022-10-26T02:22:19;100959.44;;;14.22;100.00
35551;BME280;21655;46.056;13.616;2022-10-26T02:24:43;100956.94;;;14.27;100.00
35551;BME280;21655;46.056;13.616;2022-10-26T02:27:18;100954.91;;;14.21;100.00
35551;BME280;21655;46.056;13.616;2022-10-26T02:29:45;100947.41;;;14.22;100.00
35551;BME280;21655;46.056;13.616;2022-10-26T02:32:13;100952.03;;;14.29;100.00
35551;BME280;21655;46.056;13.616;2022-10-26T02:34:43;100943.59;;;14.37;100.00
35551;BME280;21655;46.056;13.616;2022-10-26T02:37:11;100930.22;;;14.33;100.00
35551;BME280;21655;46.056;13.616;2022-10-26T02:39:38;100925.31;;;14.35;100.00
35551;BME280;21655;46.056;13.616;2022-10-26T02:42:06;100918.88;;;14.34;100.00
35551;BME280;21655;46.056;13.616;2022-10-26T02:44:41;100913.19;;;14.28;100.00
35551;BME280;21655;46.056;13.616;2022-10-26T02:47:08;100911.63;;;14.25;100.00
35551;BME280;21655;46.056;13.616;2022-10-26T02:49:34;100906.06;;;14.25;100.00
35551;BME280;21655;46.056;13.616;2022-10-26T02:52:09;100906.34;;;14.16;100.00
35551;BME280;21655;46.056;13.616;2022-10-26T02:54:45;100913.78;;;14.15;100.00
35551;BME280;21655;46.056;13.616;2022-10-26T03:00:15;100924.47;;;14.12;100.00
35551;BME280;21655;46.056;13.616;2022-10-26T03:02:42;100932.19;;;14.10;100.00
35551;BME280;21655;46.056;13.616;2022-10-26T03:05:15;100926.47;;;14.03;100.00
35551;BME280;21655;46.056;13.616;2022-10-26T03:07:42;100938.38;;;13.97;100.00
35551;BME280;21655;46.056;13.616;2022-10-26T03:10:07;100944.16;;;13.96;100.00
35551;BME280;21655;46.056;13.616;2022-10-26T03:12:33;100942.78;;;13.92;100.00
35551;BME280;21655;46.056;13.616;2022-10-26T03:14:58;100933.94;;;13.88;100.00
35551;BME280;21655;46.056;13.616;2022-10-26T03:17:24;100935.53;;;13.83;100.00
35551;BME280;21655;46.056;13.616;2022-10-26T03:19:49;100932.94;;;13.81;100.00
35551;BME280;21655;46.056;13.616;2022-10-26T03:22:14;100927.69;;;13.86;100.00
35551;BME280;21655;46.056;13.616;2022-10-26T03:24:40;100925.25;;;13.83;100.00
35551;BME280;21655;46.056;13.616;2022-10-26T03:27:05;100925.25;;;13.83;100.00
35551;BME280;21655;46.056;13.616;2022-10-26T03:29:30;100923.72;;;13.81;100.00
35551;BME280;21655;46.056;13.616;2022-10-26T03:31:56;100928.78;;;13.77;100.00
35551;BME280;21655;46.056;13.616;2022-10-26T03:34:21;100912.06;;;13.77;100.00
35551;BME280;21655;46.056;13.616;2022-10-26T03:36:47;100910.84;;;13.80;100.00
35551;BME280;21655;46.056;13.616;2022-10-26T03:39:13;100916.78;;;13.77;100.00
35551;BME280;21655;46.056;13.616;2022-10-26T03:41:38;100921.31;;;13.78;100.00
35551;BME280;21655;46.056;13.616;2022-10-26T03:44:04;100932.63;;;13.76;100.00
35551;BME280;21655;46.056;13.616;2022-10-26T03:46:29;100930.47;;;13.64;100.00
35551;BME280;21655;46.056;13.616;2022-10-26T03:48:55;100940.63;;;13.57;100.00
35551;BME280;21655;46.056;13.616;2022-10-26T03:51:20;100951.75;;;13.57;100.00
35551;BME280;21655;46.056;13.616;2022-10-26T03:53:45;100958.03;;;13.59;100.00
35551;BME280;21655;46.056;13.616;2022-10-26T03:56:11;100953.31;;;13.59;100.00
35551;BME280;21655;46.056;13.616;2022-10-26T03:58:36;100955.06;;;13.60;100.00
35551;BME280;21655;46.056;13.616;2022-10-26T04:01:02;100944.03;;;13.67;100.00
35551;BME280;21655;46.056;13.616;2022-10-26T04:03:27;100943.13;;;13.74;100.00
35551;BME280;21655;46.056;13.616;2022-10-26T04:05:52;100940.25;;;13.82;100.00
35551;BME280;21655;46.056;13.616;2022-10-26T04:08:18;100934.31;;;13.85;100.00
35551;BME280;21655;46.056;13.616;2022-10-26T04:10:44;100934.78;;;13.89;100.00
35551;BME280;21655;46.056;13.616;2022-10-26T04:13:10;100933.84;;;13.96;100.00
35551;BME280;21655;46.056;13.616;2022-10-26T04:15:36;100942.72;;;14.00;100.00
35551;BME280;21655;46.056;13.616;2022-10-26T04:18:02;100942.16;;;14.04;100.00
35551;BME280;21655;46.056;13.616;2022-10-26T04:20:28;100936.59;;;14.04;100.00
35551;BME280;21655;46.056;13.616;2022-10-26T04:23:05;100934.75;;;14.11;100.00
35551;BME280;21655;46.056;13.616;2022-10-26T04:25:31;100928.78;;;14.14;100.00
35551;BME280;21655;46.056;13.616;2022-10-26T04:27:58;100924.81;;;14.17;100.00
35551;BME280;21655;46.056;13.616;2022-10-26T04:30:23;100924.81;;;14.17;100.00
35551;BME280;21655;46.056;13.616;2022-10-26T04:32:49;100929.19;;;14.11;100.00
35551;BME280;21655;46.056;13.616;2022-10-26T04:35:14;100925.88;;;14.08;100.00
35551;BME280;21655;46.056;13.616;2022-10-26T04:37:40;100926.38;;;14.11;100.00
35551;BME280;21655;46.056;13.616;2022-10-26T04:40:05;100911.47;;;14.04;100.00
35551;BME280;21655;46.056;13.616;2022-10-26T04:42:39;100903.38;;;13.95;100.00
35551;BME280;21655;46.056;13.616;2022-10-26T04:45:05;100908.06;;;13.94;100.00
35551;BME280;21655;46.056;13.616;2022-10-26T04:47:30;100906.34;;;13.93;100.00
35551;BME280;21655;46.056;13.616;2022-10-26T04:49:56;100908.97;;;13.95;100.00
35551;BME280;21655;46.056;13.616;2022-10-26T04:52:21;100920.28;;;13.93;100.00
35551;BME280;21655;46.056;13.616;2022-10-26T04:54:46;100913.16;;;13.91;100.00
35551;BME280;21655;46.056;13.616;2022-10-26T04:57:12;100916.44;;;13.94;100.00
35551;BME280;21655;46.056;13.616;2022-10-26T04:59:37;100917.38;;;13.87;100.00
35551;BME280;21655;46.056;13.616;2022-10-26T05:02:02;100922.41;;;13.91;100.00
35551;BME280;21655;46.056;13.616;2022-10-26T05:04:28;100919.63;;;13.91;100.00
35551;BME280;21655;46.056;13.616;2022-10-26T05:06:53;100914.41;;;13.88;100.00
35551;BME280;21655;46.056;13.616;2022-10-26T05:09:18;100916.81;;;13.91;100.00
35551;BME280;21655;46.056;13.616;2022-10-26T05:11:44;100928.66;;;13.93;100.00
35551;BME280;21655;46.056;13.616;2022-10-26T05:14:09;100931.31;;;13.87;100.00
35551;BME280;21655;46.056;13.616;2022-10-26T05:16:37;100932.75;;;13.83;100.00
35551;BME280;21655;46.056;13.616;2022-10-26T05:19:02;100941.81;;;13.85;100.00
35551;BME280;21655;46.056;13.616;2022-10-26T05:21:28;100956.25;;;13.88;100.00
35551;BME280;21655;46.056;13.616;2022-10-26T05:23:53;100952.56;;;13.88;100.00
35551;BME280;21655;46.056;13.616;2022-10-26T05:26:23;100953.06;;;13.91;100.00
35551;BME280;21655;46.056;13.616;2022-10-26T05:28:50;100960.38;;;13.92;100.00
35551;BME280;21655;46.056;13.616;2022-10-26T05:31:15;100958.66;;;13.91;100.00
35551;BME280;21655;46.056;13.616;2022-10-26T05:33:41;100958.94;;;13.96;100.00
35551;BME280;21655;46.056;13.616;2022-10-26T05:36:07;100956.47;;;14.01;100.00
35551;BME280;21655;46.056;13.616;2022-10-26T05:38:32;100957.16;;;14.03;100.00
35551;BME280;21655;46.056;13.616;2022-10-26T05:40:58;100952.25;;;14.05;100.00
35551;BME280;21655;46.056;13.616;2022-10-26T05:43:24;100961.13;;;14.09;100.00
35551;BME280;21655;46.056;13.616;2022-10-26T05:45:52;100961.06;;;14.17;100.00
35551;BME280;21655;46.056;13.616;2022-10-26T05:48:18;100962.78;;;14.18;100.00
35551;BME280;21655;46.056;13.616;2022-10-26T05:50:43;100970.84;;;14.13;100.00
35551;BME280;21655;46.056;13.616;2022-10-26T05:53:09;100977.09;;;14.15;100.00
35551;BME280;21655;46.056;13.616;2022-10-26T05:55:34;100975.53;;;14.12;100.00
35551;BME280;21655;46.056;13.616;2022-10-26T05:58:00;100961.06;;;14.17;100.00
35551;BME280;21655;46.056;13.616;2022-10-26T06:00:27;100960.50;;;14.21;100.00
35551;BME280;21655;46.056;13.616;2022-10-26T06:05:58;100972.44;;;14.30;100.00
35551;BME280;21655;46.056;13.616;2022-10-26T06:08:25;100979.75;;;14.31;100.00
35551;BME280;21655;46.056;13.616;2022-10-26T06:10:51;100983.50;;;14.38;100.00
35551;BME280;21655;46.056;13.616;2022-10-26T06:13:18;100980.25;;;14.34;100.00
35551;BME280;21655;46.056;13.616;2022-10-26T06:30:07;100994.50;;;14.54;100.00
35551;BME280;21655;46.056;13.616;2022-10-26T06:32:38;100994.22;;;14.49;100.00
35551;BME280;21655;46.056;13.616;2022-10-26T06:37:51;100999.81;;;14.49;100.00
35551;BME280;21655;46.056;13.616;2022-10-26T06:40:18;101006.44;;;14.48;100.00
35551;BME280;21655;46.056;13.616;2022-10-26T06:42:44;101011.75;;;14.57;100.00
35551;BME280;21655;46.056;13.616;2022-10-26T06:45:14;101016.38;;;14.65;100.00
35551;BME280;21655;46.056;13.616;2022-10-26T06:55:44;101011.66;;;15.23;100.00
35551;BME280;21655;46.056;13.616;2022-10-26T06:58:17;101011.44;;;15.53;100.00
35551;BME280;21655;46.056;13.616;2022-10-26T07:00:44;101001.09;;;15.68;100.00
35551;BME280;21655;46.056;13.616;2022-10-26T07:03:11;101007.91;;;15.80;100.00
35551;BME280;21655;46.056;13.616;2022-10-26T07:05:37;101006.66;;;15.83;100.00
35551;BME280;21655;46.056;13.616;2022-10-26T07:08:03;101020.88;;;15.67;100.00
35551;BME280;21655;46.056;13.616;2022-10-26T07:10:29;101021.56;;;15.54;100.00
35551;BME280;21655;46.056;13.616;2022-10-26T07:12:54;101029.09;;;15.25;100.00
35551;BME280;21655;46.056;13.616;2022-10-26T07:15:20;101029.28;;;15.23;100.00
35551;BME280;21655;46.056;13.616;2022-10-26T07:17:46;101031.06;;;15.24;100.00
35551;BME280;21655;46.056;13.616;2022-10-26T07:20:14;101037.00;;;15.21;100.00
35551;BME280;21655;46.056;13.616;2022-10-26T07:22:39;101031.41;;;15.21;100.00
35551;BME280;21655;46.056;13.616;2022-10-26T07:25:07;101031.41;;;15.21;100.00
35551;BME280;21655;46.056;13.616;2022-10-26T07:27:33;101040.41;;;15.17;100.00
35551;BME280;21655;46.056;13.616;2022-10-26T07:29:59;101045.88;;;15.25;100.00
35551;BME280;21655;46.056;13.616;2022-10-26T07:32:24;101052.31;;;15.11;100.00
35551;BME280;21655;46.056;13.616;2022-10-26T07:34:49;101053.50;;;15.16;100.00
35551;BME280;21655;46.056;13.616;2022-10-26T07:37:15;101056.56;;;15.21;100.00
35551;BME280;21655;46.056;13.616;2022-10-26T07:39:40;101050.78;;;15.23;100.00
35551;BME280;21655;46.056;13.616;2022-10-26T07:42:06;101050.72;;;15.31;100.00
35551;BME280;21655;46.056;13.616;2022-10-26T07:44:31;101044.94;;;15.32;100.00
35551;BME280;21655;46.056;13.616;2022-10-26T07:46:56;101046.94;;;15.38;100.00
35551;BME280;21655;46.056;13.616;2022-10-26T07:49:22;101044.75;;;15.34;100.00
35551;BME280;21655;46.056;13.616;2022-10-26T07:51:47;101040.28;;;15.39;100.00
35551;BME280;21655;46.056;13.616;2022-10-26T07:54:13;101041.03;;;15.48;100.00
35551;BME280;21655;46.056;13.616;2022-10-26T07:56:38;101045.34;;;15.65;100.00
35551;BME280;21655;46.056;13.616;2022-10-26T07:59:03;101032.19;;;15.80;100.00
35551;BME280;21655;46.056;13.616;2022-10-26T08:01:29;101038.56;;;16.09;100.00
35551;BME280;21655;46.056;13.616;2022-10-26T08:03:54;101046.47;;;16.41;100.00
35551;BME280;21655;46.056;13.616;2022-10-26T08:06:21;101027.44;;;16.58;100.00
35551;BME280;21655;46.056;13.616;2022-10-26T08:08:47;101023.44;;;16.46;100.00
35551;BME280;21655;46.056;13.616;2022-10-26T08:11:13;101011.69;;;16.84;100.00
35551;BME280;21655;46.056;13.616;2022-10-26T08:13:39;101005.97;;;17.32;100.00
35551;BME280;21655;46.056;13.616;2022-10-26T08:16:05;101017.34;;;17.65;100.00
35551;BME280;21655;46.056;13.616;2022-10-26T08:18:31;101011.28;;;17.61;100.00
35551;BME280;21655;46.056;13.616;2022-10-26T08:21:05;101017.16;;;17.66;100.00
35551;BME280;21655;46.056;13.616;2022-10-26T08:23:32;101001.47;;;19.84;100.00
35551;BME280;21655;46.056;13.616;2022-10-26T08:25:59;100995.09;;;21.48;100.00
35551;BME280;21655;46.056;13.616;2022-10-26T08:28:25;101002.63;;;20.70;100.00
35551;BME280;21655;46.056;13.616;2022-10-26T08:30:50;101001.00;;;21.04;100.00
35551;BME280;21655;46.056;13.616;2022-10-26T08:33:15;101010.72;;;20.04;100.00
35551;BME280;21655;46.056;13.616;2022-10-26T08:35:41;101003.34;;;19.53;100.00
35551;BME280;21655;46.056;13.616;2022-10-26T08:38:06;101013.00;;;18.81;100.00
35551;BME280;21655;46.056;13.616;2022-10-26T08:40:35;101018.63;;;18.68;100.00
35551;BME280;21655;46.056;13.616;2022-10-26T08:43:28;101019.28;;;18.44;100.00
35551;BME280;21655;46.056;13.616;2022-10-26T08:46:15;101021.59;;;18.14;100.00
35551;BME280;21655;46.056;13.616;2022-10-26T08:48:47;101027.22;;;18.08;100.00
35551;BME280;21655;46.056;13.616;2022-10-26T08:51:17;101030.31;;;18.32;100.00
35551;BME280;21655;46.056;13.616;2022-10-26T08:53:51;101026.81;;;19.14;100.00
35551;BME280;21655;46.056;13.616;2022-10-26T08:56:25;101016.84;;;21.05;100.00
35551;BME280;21655;46.056;13.616;2022-10-26T08:59:02;101011.69;;;23.61;100.00
35551;BME280;21655;46.056;13.616;2022-10-26T09:01:32;100996.38;;;27.31;84.14
35551;BME280;21655;46.056;13.616;2022-10-26T09:04:01;101001.22;;;26.99;76.50
35551;BME280;21655;46.056;13.616;2022-10-26T09:09:08;101006.91;;;25.77;80.72
35551;BME280;21655;46.056;13.616;2022-10-26T09:14:24;101006.75;;;25.45;84.96
35551;BME280;21655;46.056;13.616;2022-10-26T09:17:01;101011.97;;;24.27;93.07
35551;BME280;21655;46.056;13.616;2022-10-26T09:22:17;101014.41;;;22.17;100.00
35551;BME280;21655;46.056;13.616;2022-10-26T09:25:18;101012.34;;;21.94;100.00
35551;BME280;21655;46.056;13.616;2022-10-26T09:27:49;101008.34;;;23.06;100.00
35551;BME280;21655;46.056;13.616;2022-10-26T09:30:18;101004.56;;;23.98;100.00
35551;BME280;21655;46.056;13.616;2022-10-26T09:32:46;101009.34;;;25.47;93.42
35551;BME280;21655;46.056;13.616;2022-10-26T09:35:21;101001.44;;;26.93;79.42
35551;BME280;21655;46.056;13.616;2022-10-26T09:37:53;100998.13;;;30.58;61.00
35551;BME280;21655;46.056;13.616;2022-10-26T09:40:39;101005.50;;;32.16;51.77
35551;BME280;21655;46.056;13.616;2022-10-26T09:43:12;101009.00;;;33.60;45.13
35551;BME280;21655;46.056;13.616;2022-10-26T09:46:00;101020.28;;;33.89;42.68
35551;BME280;21655;46.056;13.616;2022-10-26T09:48:41;101009.72;;;33.02;42.72
35551;BME280;21655;46.056;13.616;2022-10-26T09:51:09;101014.03;;;33.18;42.69
35551;BME280;21655;46.056;13.616;2022-10-26T09:53:35;101011.53;;;33.48;41.17
35551;BME280;21655;46.056;13.616;2022-10-26T09:56:06;101014.31;;;33.85;41.08
35551;BME280;21655;46.056;13.616;2022-10-26T09:58:45;101016.94;;;33.37;40.28
35551;BME280;21655;46.056;13.616;2022-10-26T10:01:40;101010.75;;;31.57;44.00
35551;BME280;21655;46.056;13.616;2022-10-26T10:06:42;101010.28;;;32.02;44.58
35551;BME280;21655;46.056;13.616;2022-10-26T10:14:08;101003.22;;;32.36;43.73
35551;BME280;21655;46.056;13.616;2022-10-26T10:16:39;101008.94;;;30.02;49.47
35551;BME280;21655;46.056;13.616;2022-10-26T10:19:05;100996.47;;;30.85;47.83
35551;BME280;21655;46.056;13.616;2022-10-26T10:21:44;100999.13;;;31.10;47.07
35551;BME280;21655;46.056;13.616;2022-10-26T10:24:25;100995.19;;;31.63;46.41
35551;BME280;21655;46.056;13.616;2022-10-26T10:26:59;100991.75;;;31.61;48.45
35551;BME280;21655;46.056;13.616;2022-10-26T10:29:46;100981.22;;;31.28;49.20
35551;BME280;21655;46.056;13.616;2022-10-26T10:32:21;100987.00;;;30.41;50.13
35551;BME280;21655;46.056;13.616;2022-10-26T10:34:52;100984.56;;;30.15;51.27
35551;BME280;21655;46.056;13.616;2022-10-26T10:37:27;100982.56;;;28.11;56.72
35551;BME280;21655;46.056;13.616;2022-10-26T10:40:06;100990.50;;;29.00;57.08
35551;BME280;21655;46.056;13.616;2022-10-26T10:42:35;100980.66;;;30.49;53.36
35551;BME280;21655;46.056;13.616;2022-10-26T10:45:03;100975.56;;;30.85;53.28
35551;BME280;21655;46.056;13.616;2022-10-26T10:47:34;100971.28;;;31.96;48.33
35551;BME280;21655;46.056;13.616;2022-10-26T10:50:15;100974.47;;;32.41;48.44
35551;BME280;21655;46.056;13.616;2022-10-26T10:52:42;100979.75;;;32.90;46.08
35551;BME280;21655;46.056;13.616;2022-10-26T10:58:02;100962.75;;;31.91;48.23
35551;BME280;21655;46.056;13.616;2022-10-26T11:00:36;100967.91;;;31.09;49.67
35551;BME280;21655;46.056;13.616;2022-10-26T11:08:58;100963.16;;;27.46;69.84
35551;BME280;21655;46.056;13.616;2022-10-26T11:11:40;100965.81;;;28.29;66.33
35551;BME280;21655;46.056;13.616;2022-10-26T11:14:13;100954.47;;;30.22;59.23
35551;BME280;21655;46.056;13.616;2022-10-26T11:16:44;100957.34;;;31.66;54.09
35551;BME280;21655;46.056;13.616;2022-10-26T11:19:24;100957.38;;;32.50;52.15
35551;BME280;21655;46.056;13.616;2022-10-26T11:21:54;100947.34;;;33.03;48.75
35551;BME280;21655;46.056;13.616;2022-10-26T11:24:33;100949.00;;;32.90;49.26
35551;BME280;21655;46.056;13.616;2022-10-26T11:27:34;100948.59;;;32.60;49.38
35551;BME280;21655;46.056;13.616;2022-10-26T11:30:12;100947.69;;;30.08;56.58
35551;BME280;21655;46.056;13.616;2022-10-26T11:32:52;100950.50;;;29.25;62.56
35551;BME280;21655;46.056;13.616;2022-10-26T11:35:26;100948.97;;;28.28;69.26
35551;BME280;21655;46.056;13.616;2022-10-26T11:40:27;100951.03;;;26.35;90.13
35551;BME280;21655;46.056;13.616;2022-10-26T11:43:00;100948.75;;;25.84;99.28
35551;BME280;21655;46.056;13.616;2022-10-26T11:45:44;100952.38;;;27.58;91.58
35551;BME280;21655;46.056;13.616;2022-10-26T11:48:27;100941.94;;;30.57;73.68
35551;BME280;21655;46.056;13.616;2022-10-26T11:50:56;100942.84;;;32.60;61.05
35551;BME280;21655;46.056;13.616;2022-10-26T11:53:38;100944.16;;;33.04;55.20
35551;BME280;21655;46.056;13.616;2022-10-26T11:56:33;100939.41;;;32.21;55.32
35551;BME280;21655;46.056;13.616;2022-10-26T11:59:00;100939.88;;;31.34;58.00
35551;BME280;21655;46.056;13.616;2022-10-26T12:01:27;100938.19;;;31.56;58.02
35551;BME280;21655;46.056;13.616;2022-10-26T12:03:56;100939.41;;;29.97;59.46
35551;BME280;21655;46.056;13.616;2022-10-26T12:06:30;100951.25;;;27.18;74.19
35551;BME280;21655;46.056;13.616;2022-10-26T12:09:02;100957.94;;;26.66;84.46
35551;BME280;21655;46.056;13.616;2022-10-26T12:11:43;100955.41;;;27.37;79.19
35551;BME280;21655;46.056;13.616;2022-10-26T12:22:13;100952.44;;;28.40;70.63
35551;BME280;21655;46.056;13.616;2022-10-26T12:24:44;100951.97;;;27.35;72.05
35551;BME280;21655;46.056;13.616;2022-10-26T12:27:30;100942.13;;;27.11;78.12
35551;BME280;21655;46.056;13.616;2022-10-26T12:35:36;100937.75;;;27.45;81.18
35551;BME280;21655;46.056;13.616;2022-10-26T12:41:07;100934.66;;;28.03;74.71
35551;BME280;21655;46.056;13.616;2022-10-26T12:43:34;100933.34;;;28.50;73.63
35551;BME280;21655;46.056;13.616;2022-10-26T12:48:51;100930.78;;;28.69;72.67
35551;BME280;21655;46.056;13.616;2022-10-26T12:56:35;100931.34;;;28.51;72.48
35551;BME280;21655;46.056;13.616;2022-10-26T13:08:08;100923.91;;;28.60;74.50
35551;BME280;21655;46.056;13.616;2022-10-26T13:10:36;100919.06;;;29.15;71.68
35551;BME280;21655;46.056;13.616;2022-10-26T13:13:05;100917.56;;;29.57;69.59
35551;BME280;21655;46.056;13.616;2022-10-26T13:15:40;100925.28;;;29.62;64.08
35551;BME280;21655;46.056;13.616;2022-10-26T13:18:17;100929.56;;;30.23;60.45
35551;BME280;21655;46.056;13.616;2022-10-26T13:21:13;100928.88;;;30.79;57.17
35551;BME280;21655;46.056;13.616;2022-10-26T13:26:27;100926.06;;;29.77;61.17
35551;BME280;21655;46.056;13.616;2022-10-26T13:29:00;100924.81;;;28.90;68.93
35551;BME280;21655;46.056;13.616;2022-10-26T13:39:00;100912.53;;;29.05;65.94
35551;BME280;21655;46.056;13.616;2022-10-26T13:41:38;100932.38;;;28.15;67.48
35551;BME280;21655;46.056;13.616;2022-10-26T13:44:06;100926.19;;;27.15;71.82
35551;BME280;21655;46.056;13.616;2022-10-26T13:46:37;100921.13;;;27.27;74.98
35551;BME280;21655;46.056;13.616;2022-10-26T13:49:12;100925.28;;;27.56;76.98
35551;BME280;21655;46.056;13.616;2022-10-26T13:51:44;100933.97;;;27.76;72.60
35551;BME280;21655;46.056;13.616;2022-10-26T13:54:19;100920.16;;;27.53;75.41
35551;BME280;21655;46.056;13.616;2022-10-26T13:56:58;100929.75;;;27.37;73.62
35551;BME280;21655;46.056;13.616;2022-10-26T13:59:27;100924.78;;;27.69;71.59
35551;BME280;21655;46.056;13.616;2022-10-26T14:02:21;100922.19;;;27.62;69.59
35551;BME280;21655;46.056;13.616;2022-10-26T14:04:58;100920.38;;;28.03;72.19
35551;BME280;21655;46.056;13.616;2022-10-26T14:07:32;100916.25;;;27.69;72.11
35551;BME280;21655;46.056;13.616;2022-10-26T14:09:59;100913.44;;;26.86;77.46
35551;BME280;21655;46.056;13.616;2022-10-26T14:12:25;100922.69;;;25.87;85.75
35551;BME280;21655;46.056;13.616;2022-10-26T14:15:08;100925.91;;;25.96;89.46
35551;BME280;21655;46.056;13.616;2022-10-26T14:17:34;100918.00;;;26.56;85.50
35551;BME280;21655;46.056;13.616;2022-10-26T14:19:59;100920.53;;;26.84;84.10
35551;BME280;21655;46.056;13.616;2022-10-26T14:22:26;100926.31;;;26.62;84.83
35551;BME280;21655;46.056;13.616;2022-10-26T14:24:57;100919.66;;;26.83;83.87
35551;BME280;21655;46.056;13.616;2022-10-26T14:27:31;100918.59;;;26.31;87.75
35551;BME280;21655;46.056;13.616;2022-10-26T14:29:56;100911.59;;;26.44;87.02
35551;BME280;21655;46.056;13.616;2022-10-26T14:32:29;100926.50;;;25.98;92.63
35551;BME280;21655;46.056;13.616;2022-10-26T14:34:56;100923.97;;;25.37;100.00
35551;BME280;21655;46.056;13.616;2022-10-26T14:37:36;100921.03;;;24.78;100.00
35551;BME280;21655;46.056;13.616;2022-10-26T14:40:03;100928.56;;;24.23;100.00
35551;BME280;21655;46.056;13.616;2022-10-26T14:42:50;100933.50;;;23.88;100.00
35551;BME280;21655;46.056;13.616;2022-10-26T14:45:28;100932.09;;;23.62;100.00